sensor_id;sensor_type;location;lat;lon;timestamp;temperature;humidity
3492;DHT22;1760;52.480;13.422;2023-07-13T00:01:44;20.80;99.90
3492;DHT22;1760;52.480;13.422;2023-07-13T00:04:15;21.10;99.90
3492;DHT22;1760;52.480;13.422;2023-07-13T00:06:42;20.90;99.90
3492;DHT22;1760;52.480;13.422;2023-07-13T00:09:10;20.90;99.90
3492;DHT22;1760;52.480;13.422;2023-07-13T00:11:38;20.70;99.90
3492;DHT22;1760;52.480;13.422;2023-07-13T00:14:05;20.90;99.90
3492;DHT22;1760;52.480;13.422;2023-07-13T00:16:33;20.90;99.90
3492;DHT22;1760;52.480;13.422;2023-07-13T00:19:00;20.60;99.90
3492;DHT22;1760;52.480;13.422;2023-07-13T00:21:27;21.50;99.90
3492;DHT22;1760;52.480;13.422;2023-07-13T00:23:53;21.20;99.90
3492;DHT22;1760;52.480;13.422;2023-07-13T00:26:21;21.00;99.90
3492;DHT22;1760;52.480;13.422;2023-07-13T00:28:49;20.80;99.90
3492;DHT22;1760;52.480;13.422;2023-07-13T00:31:16;20.60;99.90
3492;DHT22;1760;52.480;13.422;2023-07-13T00:33:43;20.90;99.90
3492;DHT22;1760;52.480;13.422;2023-07-13T00:36:11;20.70;99.90
3492;DHT22;1760;52.480;13.422;2023-07-13T00:38:43;20.70;99.90
3492;DHT22;1760;52.480;13.422;2023-07-13T00:41:10;20.70;99.90
3492;DHT22;1760;52.480;13.422;2023-07-13T00:46:25;20.60;99.90
3492;DHT22;1760;52.480;13.422;2023-07-13T00:48:54;20.70;99.90
3492;DHT22;1760;52.480;13.422;2023-07-13T00:51:25;20.70;99.90
3492;DHT22;1760;52.480;13.422;2023-07-13T00:53:56;20.40;99.90
3492;DHT22;1760;52.480;13.422;2023-07-13T00:56:23;20.50;99.90
3492;DHT22;1760;52.480;13.422;2023-07-13T01:01:21;20.50;99.90
3492;DHT22;1760;52.480;13.422;2023-07-13T01:03:49;20.40;99.90
3492;DHT22;1760;52.480;13.422;2023-07-13T01:06:16;20.10;99.90
3492;DHT22;1760;52.480;13.422;2023-07-13T01:08:43;20.10;99.90
3492;DHT22;1760;52.480;13.422;2023-07-13T01:11:10;20.30;99.90
3492;DHT22;1760;52.480;13.422;2023-07-13T01:13:39;20.30;99.90
3492;DHT22;1760;52.480;13.422;2023-07-13T01:16:25;20.90;99.90
3492;DHT22;1760;52.480;13.422;2023-07-13T01:18:54;20.10;99.90
3492;DHT22;1760;52.480;13.422;2023-07-13T01:21:25;20.10;99.90
3492;DHT22;1760;52.480;13.422;2023-07-13T01:23:52;20.40;99.90
3492;DHT22;1760;52.480;13.422;2023-07-13T01:26:19;20.20;99.90
3492;DHT22;1760;52.480;13.422;2023-07-13T01:28:49;20.30;99.90
3492;DHT22;1760;52.480;13.422;2023-07-13T01:31:16;20.30;99.90
3492;DHT22;1760;52.480;13.422;2023-07-13T01:33:43;20.10;99.90
3492;DHT22;1760;52.480;13.422;2023-07-13T01:36:10;20.20;99.90
3492;DHT22;1760;52.480;13.422;2023-07-13T01:38:39;20.30;99.90
3492;DHT22;1760;52.480;13.422;2023-07-13T01:41:08;20.20;99.90
3492;DHT22;1760;52.480;13.422;2023-07-13T01:43:35;20.80;99.90
3492;DHT22;1760;52.480;13.422;2023-07-13T01:46:01;20.10;99.90
3492;DHT22;1760;52.480;13.422;2023-07-13T01:48:28;20.20;99.90
3492;DHT22;1760;52.480;13.422;2023-07-13T01:50:55;20.40;99.90
3492;DHT22;1760;52.480;13.422;2023-07-13T01:53:22;20.20;99.90
3492;DHT22;1760;52.480;13.422;2023-07-13T01:55:50;20.10;99.90
3492;DHT22;1760;52.480;13.422;2023-07-13T01:58:17;20.10;99.90
3492;DHT22;1760;52.480;13.422;2023-07-13T02:00:44;20.00;99.90
3492;DHT22;1760;52.480;13.422;2023-07-13T02:08:13;20.10;99.90
3492;DHT22;1760;52.480;13.422;2023-07-13T02:13:08;20.00;99.90
3492;DHT22;1760;52.480;13.422;2023-07-13T02:15:38;20.00;99.90
3492;DHT22;1760;52.480;13.422;2023-07-13T02:18:07;19.90;99.90
3492;DHT22;1760;52.480;13.422;2023-07-13T02:20:34;19.70;99.90
3492;DHT22;1760;52.480;13.422;2023-07-13T02:23:00;19.70;99.90
3492;DHT22;1760;52.480;13.422;2023-07-13T02:27:54;19.50;99.90
3492;DHT22;1760;52.480;13.422;2023-07-13T02:30:23;20.00;99.90
3492;DHT22;1760;52.480;13.422;2023-07-13T02:32:50;19.50;99.90
3492;DHT22;1760;52.480;13.422;2023-07-13T02:37:45;19.60;99.90
3492;DHT22;1760;52.480;13.422;2023-07-13T02:40:12;19.20;99.90
3492;DHT22;1760;52.480;13.422;2023-07-13T02:42:38;19.40;99.90
3492;DHT22;1760;52.480;13.422;2023-07-13T02:45:07;19.40;99.90
3492;DHT22;1760;52.480;13.422;2023-07-13T02:47:36;19.40;99.90
3492;DHT22;1760;52.480;13.422;2023-07-13T02:50:03;19.70;99.90
3492;DHT22;1760;52.480;13.422;2023-07-13T02:59:52;19.50;99.90
3492;DHT22;1760;52.480;13.422;2023-07-13T03:02:20;19.50;99.90
3492;DHT22;1760;52.480;13.422;2023-07-13T03:04:48;19.40;99.90
3492;DHT22;1760;52.480;13.422;2023-07-13T03:07:15;19.60;99.90
3492;DHT22;1760;52.480;13.422;2023-07-13T03:09:42;19.90;99.90
3492;DHT22;1760;52.480;13.422;2023-07-13T03:14:38;19.50;99.90
3492;DHT22;1760;52.480;13.422;2023-07-13T03:19:32;19.30;99.90
3492;DHT22;1760;52.480;13.422;2023-07-13T03:22:00;19.20;99.90
3492;DHT22;1760;52.480;13.422;2023-07-13T03:24:27;19.20;99.90
3492;DHT22;1760;52.480;13.422;2023-07-13T03:26:54;19.30;99.90
3492;DHT22;1760;52.480;13.422;2023-07-13T03:29:21;19.50;99.90
3492;DHT22;1760;52.480;13.422;2023-07-13T03:31:48;19.00;99.90
3492;DHT22;1760;52.480;13.422;2023-07-13T03:39:10;19.20;99.90
3492;DHT22;1760;52.480;13.422;2023-07-13T03:41:37;19.00;99.90
3492;DHT22;1760;52.480;13.422;2023-07-13T03:44:04;19.10;99.90
3492;DHT22;1760;52.480;13.422;2023-07-13T03:48:59;19.20;99.90
3492;DHT22;1760;52.480;13.422;2023-07-13T03:56:22;19.00;99.90
3492;DHT22;1760;52.480;13.422;2023-07-13T03:58:50;19.10;99.90
3492;DHT22;1760;52.480;13.422;2023-07-13T04:01:18;19.20;99.90
3492;DHT22;1760;52.480;13.422;2023-07-13T04:03:45;19.30;99.90
3492;DHT22;1760;52.480;13.422;2023-07-13T04:06:15;19.80;99.90
3492;DHT22;1760;52.480;13.422;2023-07-13T04:08:47;19.30;99.90
3492;DHT22;1760;52.480;13.422;2023-07-13T04:11:15;19.30;99.90
3492;DHT22;1760;52.480;13.422;2023-07-13T04:13:44;19.00;99.90
3492;DHT22;1760;52.480;13.422;2023-07-13T04:21:07;19.40;99.90
3492;DHT22;1760;52.480;13.422;2023-07-13T04:30:57;19.80;99.90
3492;DHT22;1760;52.480;13.422;2023-07-13T04:35:52;19.50;99.90
3492;DHT22;1760;52.480;13.422;2023-07-13T04:38:22;19.70;99.90
3492;DHT22;1760;52.480;13.422;2023-07-13T04:43:17;19.70;99.90
3492;DHT22;1760;52.480;13.422;2023-07-13T04:48:13;19.90;99.90
3492;DHT22;1760;52.480;13.422;2023-07-13T04:50:40;19.00;99.90
3492;DHT22;1760;52.480;13.422;2023-07-13T04:58:01;20.50;99.90
3492;DHT22;1760;52.480;13.422;2023-07-13T05:00:29;20.00;99.90
3492;DHT22;1760;52.480;13.422;2023-07-13T05:02:56;20.00;99.90
3492;DHT22;1760;52.480;13.422;2023-07-13T05:05:26;20.00;99.90
3492;DHT22;1760;52.480;13.422;2023-07-13T05:07:53;20.10;99.90
3492;DHT22;1760;52.480;13.422;2023-07-13T05:10:22;20.20;99.90
3492;DHT22;1760;52.480;13.422;2023-07-13T05:12:49;20.20;99.90
3492;DHT22;1760;52.480;13.422;2023-07-13T05:17:46;20.30;99.90
3492;DHT22;1760;52.480;13.422;2023-07-13T05:22:42;20.60;99.90
3492;DHT22;1760;52.480;13.422;2023-07-13T05:25:09;20.30;99.90
3492;DHT22;1760;52.480;13.422;2023-07-13T05:30:04;20.20;99.90
3492;DHT22;1760;52.480;13.422;2023-07-13T05:39:54;20.00;99.90
3492;DHT22;1760;52.480;13.422;2023-07-13T05:47:15;20.30;99.90
3492;DHT22;1760;52.480;13.422;2023-07-13T05:57:05;20.90;99.90
3492;DHT22;1760;52.480;13.422;2023-07-13T06:01:59;20.80;99.90
3492;DHT22;1760;52.480;13.422;2023-07-13T06:14:16;20.50;99.90
3492;DHT22;1760;52.480;13.422;2023-07-13T06:19:11;20.60;99.90
3492;DHT22;1760;52.480;13.422;2023-07-13T06:21:39;20.70;99.90
3492;DHT22;1760;52.480;13.422;2023-07-13T06:29:00;20.80;99.90
3492;DHT22;1760;52.480;13.422;2023-07-13T06:36:23;21.00;99.90
3492;DHT22;1760;52.480;13.422;2023-07-13T06:43:44;21.20;99.90
3492;DHT22;1760;52.480;13.422;2023-07-13T06:48:39;21.50;99.90
3492;DHT22;1760;52.480;13.422;2023-07-13T06:51:06;21.60;99.90
3492;DHT22;1760;52.480;13.422;2023-07-13T07:00:55;21.90;99.90
3492;DHT22;1760;52.480;13.422;2023-07-13T07:03:24;22.20;99.90
3492;DHT22;1760;52.480;13.422;2023-07-13T07:05:53;22.20;99.90
3492;DHT22;1760;52.480;13.422;2023-07-13T07:08:20;22.10;99.90
3492;DHT22;1760;52.480;13.422;2023-07-13T07:13:19;22.60;99.90
3492;DHT22;1760;52.480;13.422;2023-07-13T07:20:40;22.60;99.90
3492;DHT22;1760;52.480;13.422;2023-07-13T07:23:08;23.50;99.90
3492;DHT22;1760;52.480;13.422;2023-07-13T07:28:07;25.20;99.90
3492;DHT22;1760;52.480;13.422;2023-07-13T07:40:24;30.80;99.90
3492;DHT22;1760;52.480;13.422;2023-07-13T07:42:52;30.70;97.90
3492;DHT22;1760;52.480;13.422;2023-07-13T07:45:19;30.40;99.90
3492;DHT22;1760;52.480;13.422;2023-07-13T07:47:46;29.90;99.90
3492;DHT22;1760;52.480;13.422;2023-07-13T07:50:13;29.70;99.90
3492;DHT22;1760;52.480;13.422;2023-07-13T07:55:08;29.80;99.90
3492;DHT22;1760;52.480;13.422;2023-07-13T07:57:39;30.50;76.10
3492;DHT22;1760;52.480;13.422;2023-07-13T08:00:07;30.40;97.80
3492;DHT22;1760;52.480;13.422;2023-07-13T08:02:34;30.10;98.30
3492;DHT22;1760;52.480;13.422;2023-07-13T08:07:30;28.10;99.90
3492;DHT22;1760;52.480;13.422;2023-07-13T08:12:24;26.80;99.90
3492;DHT22;1760;52.480;13.422;2023-07-13T08:14:53;26.60;89.40
3492;DHT22;1760;52.480;13.422;2023-07-13T08:17:23;26.40;91.90
3492;DHT22;1760;52.480;13.422;2023-07-13T08:19:50;26.90;99.90
3492;DHT22;1760;52.480;13.422;2023-07-13T08:22:17;27.30;99.90
3492;DHT22;1760;52.480;13.422;2023-07-13T08:24:44;27.30;99.90
3492;DHT22;1760;52.480;13.422;2023-07-13T08:29:48;27.00;99.90
3492;DHT22;1760;52.480;13.422;2023-07-13T08:32:17;26.50;88.70
3492;DHT22;1760;52.480;13.422;2023-07-13T08:34:44;26.40;99.90
3492;DHT22;1760;52.480;13.422;2023-07-13T08:37:11;25.90;99.90
3492;DHT22;1760;52.480;13.422;2023-07-13T08:42:14;25.30;99.90
3492;DHT22;1760;52.480;13.422;2023-07-13T08:47:21;24.80;92.30
3492;DHT22;1760;52.480;13.422;2023-07-13T08:49:48;24.80;99.90
3492;DHT22;1760;52.480;13.422;2023-07-13T08:52:23;24.40;99.90
3492;DHT22;1760;52.480;13.422;2023-07-13T08:54:55;24.90;99.90
3492;DHT22;1760;52.480;13.422;2023-07-13T08:57:27;25.30;99.90
3492;DHT22;1760;52.480;13.422;2023-07-13T09:02:28;26.20;99.90
3492;DHT22;1760;52.480;13.422;2023-07-13T09:05:06;27.90;99.90
3492;DHT22;1760;52.480;13.422;2023-07-13T09:07:50;29.00;89.00
3492;DHT22;1760;52.480;13.422;2023-07-13T09:10:27;29.10;99.10
3492;DHT22;1760;52.480;13.422;2023-07-13T09:13:04;29.40;77.00
3492;DHT22;1760;52.480;13.422;2023-07-13T09:15:37;30.60;99.90
3492;DHT22;1760;52.480;13.422;2023-07-13T09:18:11;30.80;70.60
3492;DHT22;1760;52.480;13.422;2023-07-13T09:20:46;31.30;94.40
3492;DHT22;1760;52.480;13.422;2023-07-13T09:23:16;31.30;65.20
3492;DHT22;1760;52.480;13.422;2023-07-13T09:28:15;32.20;95.40
3492;DHT22;1760;52.480;13.422;2023-07-13T09:30:46;32.80;94.00
3492;DHT22;1760;52.480;13.422;2023-07-13T09:33:18;33.10;87.90
3492;DHT22;1760;52.480;13.422;2023-07-13T09:35:45;33.50;91.80
3492;DHT22;1760;52.480;13.422;2023-07-13T09:38:14;33.50;54.30
3492;DHT22;1760;52.480;13.422;2023-07-13T09:41:00;33.10;84.10
3492;DHT22;1760;52.480;13.422;2023-07-13T09:48:34;29.70;91.20
3492;DHT22;1760;52.480;13.422;2023-07-13T09:51:07;29.30;60.50
3492;DHT22;1760;52.480;13.422;2023-07-13T09:53:41;29.40;69.60
3492;DHT22;1760;52.480;13.422;2023-07-13T09:56:19;30.50;60.60
3492;DHT22;1760;52.480;13.422;2023-07-13T09:58:46;30.30;92.40
3492;DHT22;1760;52.480;13.422;2023-07-13T10:01:13;30.40;93.30
3492;DHT22;1760;52.480;13.422;2023-07-13T10:03:52;29.50;90.00
3492;DHT22;1760;52.480;13.422;2023-07-13T10:06:21;28.60;91.20
3492;DHT22;1760;52.480;13.422;2023-07-13T10:08:49;27.60;92.00
3492;DHT22;1760;52.480;13.422;2023-07-13T10:11:19;27.60;65.20
3492;DHT22;1760;52.480;13.422;2023-07-13T10:13:51;27.60;66.40
3492;DHT22;1760;52.480;13.422;2023-07-13T10:16:22;27.90;94.70
3492;DHT22;1760;52.480;13.422;2023-07-13T10:18:55;28.90;64.30
3492;DHT22;1760;52.480;13.422;2023-07-13T10:21:26;29.30;61.60
3492;DHT22;1760;52.480;13.422;2023-07-13T10:23:55;29.80;91.00
3492;DHT22;1760;52.480;13.422;2023-07-13T10:26:26;29.90;88.60
3492;DHT22;1760;52.480;13.422;2023-07-13T10:28:57;30.60;93.20
3492;DHT22;1760;52.480;13.422;2023-07-13T10:31:25;30.40;89.20
3492;DHT22;1760;52.480;13.422;2023-07-13T10:33:54;30.20;58.60
3492;DHT22;1760;52.480;13.422;2023-07-13T10:36:29;30.50;67.40
3492;DHT22;1760;52.480;13.422;2023-07-13T10:38:59;30.00;58.80
3492;DHT22;1760;52.480;13.422;2023-07-13T10:41:29;30.10;90.70
3492;DHT22;1760;52.480;13.422;2023-07-13T10:43:57;29.60;90.30
3492;DHT22;1760;52.480;13.422;2023-07-13T10:46:26;28.80;90.80
3492;DHT22;1760;52.480;13.422;2023-07-13T10:48:59;28.70;91.70
3492;DHT22;1760;52.480;13.422;2023-07-13T10:51:28;27.70;62.50
3492;DHT22;1760;52.480;13.422;2023-07-13T10:54:16;27.30;64.00
3492;DHT22;1760;52.480;13.422;2023-07-13T10:56:44;26.90;95.20
3492;DHT22;1760;52.480;13.422;2023-07-13T10:59:14;26.90;64.60
3492;DHT22;1760;52.480;13.422;2023-07-13T11:01:54;27.50;60.50
3492;DHT22;1760;52.480;13.422;2023-07-13T11:04:23;27.80;92.40
3492;DHT22;1760;52.480;13.422;2023-07-13T11:06:56;28.10;92.20
3492;DHT22;1760;52.480;13.422;2023-07-13T11:09:35;28.10;61.10
3492;DHT22;1760;52.480;13.422;2023-07-13T11:12:07;28.10;93.60
3492;DHT22;1760;52.480;13.422;2023-07-13T11:14:37;28.50;92.80
3492;DHT22;1760;52.480;13.422;2023-07-13T11:17:24;28.70;92.60
3492;DHT22;1760;52.480;13.422;2023-07-13T11:19:54;28.30;54.50
3492;DHT22;1760;52.480;13.422;2023-07-13T11:22:42;28.30;54.50
3492;DHT22;1760;52.480;13.422;2023-07-13T11:25:27;28.50;91.60
3492;DHT22;1760;52.480;13.422;2023-07-13T11:28:11;28.60;91.00
3492;DHT22;1760;52.480;13.422;2023-07-13T11:30:43;28.50;90.40
3492;DHT22;1760;52.480;13.422;2023-07-13T11:33:21;28.50;58.90
3492;DHT22;1760;52.480;13.422;2023-07-13T11:36:02;28.80;59.60
3492;DHT22;1760;52.480;13.422;2023-07-13T11:38:33;28.50;59.10
3492;DHT22;1760;52.480;13.422;2023-07-13T11:41:05;28.30;90.30
3492;DHT22;1760;52.480;13.422;2023-07-13T11:46:13;28.20;90.80
3492;DHT22;1760;52.480;13.422;2023-07-13T11:48:40;28.60;67.50
3492;DHT22;1760;52.480;13.422;2023-07-13T11:51:18;28.40;61.40
3492;DHT22;1760;52.480;13.422;2023-07-13T11:53:47;28.00;95.30
3492;DHT22;1760;52.480;13.422;2023-07-13T11:58:48;27.70;91.30
3492;DHT22;1760;52.480;13.422;2023-07-13T12:01:18;27.80;93.30
3492;DHT22;1760;52.480;13.422;2023-07-13T12:03:46;27.40;95.00
3492;DHT22;1760;52.480;13.422;2023-07-13T12:06:33;27.60;95.30
3492;DHT22;1760;52.480;13.422;2023-07-13T12:09:10;27.60;61.60
3492;DHT22;1760;52.480;13.422;2023-07-13T12:11:40;27.50;94.70
3492;DHT22;1760;52.480;13.422;2023-07-13T12:14:14;27.60;61.60
3492;DHT22;1760;52.480;13.422;2023-07-13T12:19:17;27.40;91.70
3492;DHT22;1760;52.480;13.422;2023-07-13T12:21:46;27.40;95.00
3492;DHT22;1760;52.480;13.422;2023-07-13T12:24:15;27.30;91.90
3492;DHT22;1760;52.480;13.422;2023-07-13T12:29:16;27.00;88.50
3492;DHT22;1760;52.480;13.422;2023-07-13T12:31:45;26.70;87.50
3492;DHT22;1760;52.480;13.422;2023-07-13T12:34:13;27.20;58.10
3492;DHT22;1760;52.480;13.422;2023-07-13T12:36:47;27.30;64.30
3492;DHT22;1760;52.480;13.422;2023-07-13T12:39:17;27.10;92.30
3492;DHT22;1760;52.480;13.422;2023-07-13T12:44:17;27.40;59.50
3492;DHT22;1760;52.480;13.422;2023-07-13T12:46:56;27.00;91.10
3492;DHT22;1760;52.480;13.422;2023-07-13T12:49:25;26.90;91.70
3492;DHT22;1760;52.480;13.422;2023-07-13T12:51:58;27.30;63.00
3492;DHT22;1760;52.480;13.422;2023-07-13T12:54:27;26.50;95.50
3492;DHT22;1760;52.480;13.422;2023-07-13T12:56:56;26.30;95.30
3492;DHT22;1760;52.480;13.422;2023-07-13T12:59:28;26.70;61.40
3492;DHT22;1760;52.480;13.422;2023-07-13T13:07:02;26.70;92.10
3492;DHT22;1760;52.480;13.422;2023-07-13T13:09:29;27.30;95.60
3492;DHT22;1760;52.480;13.422;2023-07-13T13:11:57;26.90;91.90
3492;DHT22;1760;52.480;13.422;2023-07-13T13:16:52;26.80;95.80
3492;DHT22;1760;52.480;13.422;2023-07-13T13:19:23;26.80;63.40
3492;DHT22;1760;52.480;13.422;2023-07-13T13:21:54;26.70;63.60
3492;DHT22;1760;52.480;13.422;2023-07-13T13:24:26;26.70;64.20
3492;DHT22;1760;52.480;13.422;2023-07-13T13:26:53;26.70;62.90
3492;DHT22;1760;52.480;13.422;2023-07-13T13:29:23;26.40;96.30
3492;DHT22;1760;52.480;13.422;2023-07-13T13:34:23;26.40;64.70
3492;DHT22;1760;52.480;13.422;2023-07-13T13:36:50;26.60;65.60
3492;DHT22;1760;52.480;13.422;2023-07-13T13:39:24;26.40;96.50
3492;DHT22;1760;52.480;13.422;2023-07-13T13:41:52;26.70;96.40
3492;DHT22;1760;52.480;13.422;2023-07-13T13:44:21;26.50;64.20
3492;DHT22;1760;52.480;13.422;2023-07-13T13:46:51;26.50;94.50
3492;DHT22;1760;52.480;13.422;2023-07-13T13:49:25;26.60;91.60
3492;DHT22;1760;52.480;13.422;2023-07-13T13:51:53;26.50;96.30
3492;DHT22;1760;52.480;13.422;2023-07-13T13:54:23;26.70;63.70
3492;DHT22;1760;52.480;13.422;2023-07-13T13:56:52;26.70;92.60
3492;DHT22;1760;52.480;13.422;2023-07-13T14:01:47;26.70;64.20
3492;DHT22;1760;52.480;13.422;2023-07-13T14:04:18;26.70;63.50
3492;DHT22;1760;52.480;13.422;2023-07-13T14:06:46;26.70;96.40
3492;DHT22;1760;52.480;13.422;2023-07-13T14:09:15;26.60;64.20
3492;DHT22;1760;52.480;13.422;2023-07-13T14:11:45;26.60;94.50
3492;DHT22;1760;52.480;13.422;2023-07-13T14:14:17;26.90;92.50
3492;DHT22;1760;52.480;13.422;2023-07-13T14:21:45;26.90;92.00
3492;DHT22;1760;52.480;13.422;2023-07-13T14:24:13;26.90;96.20
3492;DHT22;1760;52.480;13.422;2023-07-13T14:26:43;27.10;94.60
3492;DHT22;1760;52.480;13.422;2023-07-13T14:29:15;26.90;61.50
3492;DHT22;1760;52.480;13.422;2023-07-13T14:34:11;26.70;59.20
3492;DHT22;1760;52.480;13.422;2023-07-13T14:36:40;26.80;94.80
3492;DHT22;1760;52.480;13.422;2023-07-13T14:39:13;28.60;63.40
3492;DHT22;1760;52.480;13.422;2023-07-13T14:41:40;26.60;95.40
3492;DHT22;1760;52.480;13.422;2023-07-13T14:44:13;26.60;61.80
3492;DHT22;1760;52.480;13.422;2023-07-13T14:46:41;26.00;95.40
3492;DHT22;1760;52.480;13.422;2023-07-13T14:49:15;26.60;91.60
3492;DHT22;1760;52.480;13.422;2023-07-13T14:51:45;26.80;91.40
3492;DHT22;1760;52.480;13.422;2023-07-13T14:56:40;26.90;94.70
3492;DHT22;1760;52.480;13.422;2023-07-13T15:01:36;26.80;61.70
3492;DHT22;1760;52.480;13.422;2023-07-13T15:04:04;26.60;90.50
3492;DHT22;1760;52.480;13.422;2023-07-13T15:08:58;27.00;93.50
3492;DHT22;1760;52.480;13.422;2023-07-13T15:11:25;26.30;89.80
3492;DHT22;1760;52.480;13.422;2023-07-13T15:13:52;26.40;93.90
3492;DHT22;1760;52.480;13.422;2023-07-13T15:16:22;26.40;90.50
3492;DHT22;1760;52.480;13.422;2023-07-13T15:18:51;26.40;94.40
3492;DHT22;1760;52.480;13.422;2023-07-13T15:21:21;26.60;89.30
3492;DHT22;1760;52.480;13.422;2023-07-13T15:23:49;26.40;90.70
3492;DHT22;1760;52.480;13.422;2023-07-13T15:26:17;26.40;59.10
3492;DHT22;1760;52.480;13.422;2023-07-13T15:28:45;26.10;93.90
3492;DHT22;1760;52.480;13.422;2023-07-13T15:31:19;26.20;91.00
3492;DHT22;1760;52.480;13.422;2023-07-13T15:33:47;26.30;58.10
3492;DHT22;1760;52.480;13.422;2023-07-13T15:36:17;26.40;58.80
3492;DHT22;1760;52.480;13.422;2023-07-13T15:38:44;26.40;58.60
3492;DHT22;1760;52.480;13.422;2023-07-13T15:41:19;26.40;90.30
3492;DHT22;1760;52.480;13.422;2023-07-13T15:43:48;26.40;59.40
3492;DHT22;1760;52.480;13.422;2023-07-13T15:51:14;26.80;94.70
3492;DHT22;1760;52.480;13.422;2023-07-13T15:53:44;26.50;93.20
3492;DHT22;1760;52.480;13.422;2023-07-13T15:56:21;26.30;94.30
3492;DHT22;1760;52.480;13.422;2023-07-13T15:58:49;26.40;94.80
3492;DHT22;1760;52.480;13.422;2023-07-13T16:03:50;26.70;93.40
3492;DHT22;1760;52.480;13.422;2023-07-13T16:06:20;26.10;90.80
3492;DHT22;1760;52.480;13.422;2023-07-13T16:08:50;25.80;90.10
3492;DHT22;1760;52.480;13.422;2023-07-13T16:11:19;26.10;93.90
3492;DHT22;1760;52.480;13.422;2023-07-13T16:18:44;26.00;94.10
3492;DHT22;1760;52.480;13.422;2023-07-13T16:21:12;25.90;59.70
3492;DHT22;1760;52.480;13.422;2023-07-13T16:23:41;25.90;91.10
3492;DHT22;1760;52.480;13.422;2023-07-13T16:26:25;25.90;60.00
3492;DHT22;1760;52.480;13.422;2023-07-13T16:28:53;25.80;94.40
3492;DHT22;1760;52.480;13.422;2023-07-13T16:31:29;25.80;58.80
3492;DHT22;1760;52.480;13.422;2023-07-13T16:41:24;25.70;56.60
3492;DHT22;1760;52.480;13.422;2023-07-13T16:46:22;25.50;95.30
3492;DHT22;1760;52.480;13.422;2023-07-13T16:48:50;25.50;95.40
3492;DHT22;1760;52.480;13.422;2023-07-13T16:51:17;25.10;91.10
3492;DHT22;1760;52.480;13.422;2023-07-13T16:53:45;24.90;95.10
3492;DHT22;1760;52.480;13.422;2023-07-13T16:56:15;25.10;62.40
3492;DHT22;1760;52.480;13.422;2023-07-13T16:58:44;24.90;93.60
3492;DHT22;1760;52.480;13.422;2023-07-13T17:01:12;25.00;95.90
3492;DHT22;1760;52.480;13.422;2023-07-13T17:03:39;25.20;92.10
3492;DHT22;1760;52.480;13.422;2023-07-13T17:06:20;25.30;93.60
3492;DHT22;1760;52.480;13.422;2023-07-13T17:08:49;25.30;94.50
3492;DHT22;1760;52.480;13.422;2023-07-13T17:16:14;24.80;99.00
3492;DHT22;1760;52.480;13.422;2023-07-13T17:21:14;23.70;99.90
3492;DHT22;1760;52.480;13.422;2023-07-13T17:23:42;23.00;99.90
3492;DHT22;1760;52.480;13.422;2023-07-13T17:28:37;22.20;99.90
3492;DHT22;1760;52.480;13.422;2023-07-13T17:31:06;22.00;99.90
3492;DHT22;1760;52.480;13.422;2023-07-13T17:33:34;21.70;99.90
3492;DHT22;1760;52.480;13.422;2023-07-13T17:36:04;21.60;94.70
3492;DHT22;1760;52.480;13.422;2023-07-13T17:38:38;21.60;99.90
3492;DHT22;1760;52.480;13.422;2023-07-13T17:41:06;21.10;99.90
3492;DHT22;1760;52.480;13.422;2023-07-13T17:43:34;21.20;99.90
3492;DHT22;1760;52.480;13.422;2023-07-13T17:46:01;20.90;99.90
3492;DHT22;1760;52.480;13.422;2023-07-13T17:48:30;20.90;99.90
3492;DHT22;1760;52.480;13.422;2023-07-13T17:50:58;20.70;99.90
3492;DHT22;1760;52.480;13.422;2023-07-13T17:55:53;20.60;99.90
3492;DHT22;1760;52.480;13.422;2023-07-13T18:00:48;20.80;99.90
3492;DHT22;1760;52.480;13.422;2023-07-13T18:03:19;20.90;99.90
3492;DHT22;1760;52.480;13.422;2023-07-13T18:05:49;21.10;99.90
3492;DHT22;1760;52.480;13.422;2023-07-13T18:08:22;21.50;99.90
3492;DHT22;1760;52.480;13.422;2023-07-13T18:10:49;21.40;99.90
3492;DHT22;1760;52.480;13.422;2023-07-13T18:13:16;20.80;99.90
3492;DHT22;1760;52.480;13.422;2023-07-13T18:15:44;20.90;99.90
3492;DHT22;1760;52.480;13.422;2023-07-13T18:18:12;20.90;99.90
3492;DHT22;1760;52.480;13.422;2023-07-13T18:20:40;21.00;99.90
3492;DHT22;1760;52.480;13.422;2023-07-13T18:23:15;21.10;99.90
3492;DHT22;1760;52.480;13.422;2023-07-13T18:25:43;21.50;99.90
3492;DHT22;1760;52.480;13.422;2023-07-13T18:28:13;21.50;99.90
3492;DHT22;1760;52.480;13.422;2023-07-13T18:30:41;21.20;99.90
3492;DHT22;1760;52.480;13.422;2023-07-13T18:33:16;21.20;99.90
3492;DHT22;1760;52.480;13.422;2023-07-13T18:35:44;21.50;99.90
3492;DHT22;1760;52.480;13.422;2023-07-13T18:38:17;21.40;99.90
3492;DHT22;1760;52.480;13.422;2023-07-13T18:40:44;21.20;99.90
3492;DHT22;1760;52.480;13.422;2023-07-13T18:43:11;21.20;99.90
3492;DHT22;1760;52.480;13.422;2023-07-13T18:48:11;21.30;99.90
3492;DHT22;1760;52.480;13.422;2023-07-13T18:50:39;21.10;99.90
3492;DHT22;1760;52.480;13.422;2023-07-13T18:53:11;21.20;99.90
3492;DHT22;1760;52.480;13.422;2023-07-13T18:55:40;20.90;99.90
3492;DHT22;1760;52.480;13.422;2023-07-13T18:58:08;20.90;99.90
3492;DHT22;1760;52.480;13.422;2023-07-13T19:00:35;20.60;99.90
3492;DHT22;1760;52.480;13.422;2023-07-13T19:03:02;20.80;99.90
3492;DHT22;1760;52.480;13.422;2023-07-13T19:05:32;20.40;99.90
3492;DHT22;1760;52.480;13.422;2023-07-13T19:08:00;20.70;99.90
3492;DHT22;1760;52.480;13.422;2023-07-13T19:10:30;20.70;99.90
3492;DHT22;1760;52.480;13.422;2023-07-13T19:13:00;21.00;99.90
3492;DHT22;1760;52.480;13.422;2023-07-13T19:15:30;20.70;99.90
3492;DHT22;1760;52.480;13.422;2023-07-13T19:17:58;20.70;99.90
3492;DHT22;1760;52.480;13.422;2023-07-13T19:20:27;20.70;99.90
3492;DHT22;1760;52.480;13.422;2023-07-13T19:22:56;20.60;99.90
3492;DHT22;1760;52.480;13.422;2023-07-13T19:27:53;20.90;99.90
3492;DHT22;1760;52.480;13.422;2023-07-13T19:30:24;20.60;99.90
3492;DHT22;1760;52.480;13.422;2023-07-13T19:32:51;20.70;99.90
3492;DHT22;1760;52.480;13.422;2023-07-13T19:35:19;20.70;99.90
3492;DHT22;1760;52.480;13.422;2023-07-13T19:37:47;20.50;99.90
3492;DHT22;1760;52.480;13.422;2023-07-13T19:40:18;20.60;99.90
3492;DHT22;1760;52.480;13.422;2023-07-13T19:42:46;20.20;99.90
3492;DHT22;1760;52.480;13.422;2023-07-13T19:45:18;20.40;99.90
3492;DHT22;1760;52.480;13.422;2023-07-13T19:47:47;20.30;99.90
3492;DHT22;1760;52.480;13.422;2023-07-13T19:50:16;20.40;99.90
3492;DHT22;1760;52.480;13.422;2023-07-13T19:52:45;20.20;99.90
3492;DHT22;1760;52.480;13.422;2023-07-13T19:55:15;20.10;99.90
3492;DHT22;1760;52.480;13.422;2023-07-13T19:57:44;20.20;99.90
3492;DHT22;1760;52.480;13.422;2023-07-13T20:00:17;20.40;99.90
3492;DHT22;1760;52.480;13.422;2023-07-13T20:02:46;19.90;99.90
3492;DHT22;1760;52.480;13.422;2023-07-13T20:05:14;20.10;99.90
3492;DHT22;1760;52.480;13.422;2023-07-13T20:07:43;20.10;99.90
3492;DHT22;1760;52.480;13.422;2023-07-13T20:10:19;20.10;99.90
3492;DHT22;1760;52.480;13.422;2023-07-13T20:12:47;20.10;99.90
3492;DHT22;1760;52.480;13.422;2023-07-13T20:15:16;20.30;99.90
3492;DHT22;1760;52.480;13.422;2023-07-13T20:17:46;20.20;99.90
3492;DHT22;1760;52.480;13.422;2023-07-13T20:20:24;20.10;99.90